Time;durP1;ratioP1;P1;durP2;ratioP2;P2;SDS_P1;SDS_P2;PMS_P1;PMS_P2;Temp;Humidity;BMP_temperature;BMP_pressure;BME280_temperature;BME280_humidity;BME280_pressure;Samples;Min_cycle;Max_cycle;Signal;HPM_P1;HPM_P2
2023/03/26 00:01:35;;;;;;;17.13;2.35;;;6.70;99.90;;;6.03;100.00;97174.28;5024795;28;20049;-75
2023/03/26 00:04:05;;;;;;;16.58;2.38;;;6.70;99.90;;;5.97;100.00;97184.78;5026804;28;20049;-74
2023/03/26 00:06:37;;;;;;;13.05;2.38;;;6.70;99.90;;;5.98;100.00;97179.59;5037554;28;20137;-74
2023/03/26 00:09:11;;;;;;;13.75;2.25;;;6.70;99.90;;;5.98;100.00;97183.91;5026200;28;20080;-74
2023/03/26 00:11:39;;;;;;;10.38;2.00;;;6.70;99.90;;;6.03;100.00;97184.59;5031315;28;20068;-74
2023/03/26 00:14:08;;;;;;;14.60;2.33;;;6.70;99.90;;;6.00;100.00;97180.38;5024633;28;20050;-74
2023/03/26 00:16:35;;;;;;;15.45;2.03;;;6.70;99.90;;;5.99;100.00;97178.69;5026613;28;20120;-74
2023/03/26 00:19:02;;;;;;;15.10;2.08;;;6.70;99.90;;;6.03;100.00;97164.81;5027397;28;20061;-74
2023/03/26 00:21:30;;;;;;;13.23;2.58;;;6.70;99.90;;;5.95;100.00;97169.34;5025804;28;20577;-74
2023/03/26 00:24:13;;;;;;;14.80;1.98;;;6.70;99.90;;;6.01;100.00;97176.06;5022206;28;20128;-74
2023/03/26 00:26:42;;;;;;;15.80;3.03;;;6.70;99.90;;;5.95;100.00;97168.50;5036779;28;20117;-74
2023/03/26 00:29:10;;;;;;;25.10;3.20;;;6.60;99.90;;;5.96;100.00;97165.06;5023771;28;20049;-74
2023/03/26 00:31:40;;;;;;;17.90;3.28;;;6.60;99.90;;;6.02;100.00;97157.13;4975507;28;1320690;-74
2023/03/26 00:34:09;;;;;;;19.50;3.33;;;6.70;99.90;;;5.98;100.00;97155.56;5041179;28;20084;-74
2023/03/26 00:36:36;;;;;;;14.55;2.72;;;6.60;99.90;;;5.97;100.00;97153.84;5025512;28;20147;-74
2023/03/26 00:39:04;;;;;;;15.45;3.03;;;6.70;99.90;;;5.98;100.00;97146.09;5025246;28;20055;-74
2023/03/26 00:41:31;;;;;;;20.70;2.83;;;6.70;99.90;;;5.92;100.00;97137.69;5039748;28;20053;-74
2023/03/26 00:43:59;;;;;;;20.52;3.72;;;6.70;99.90;;;6.00;100.00;97135.75;5026399;28;20124;-74
2023/03/26 00:46:29;;;;;;;13.35;2.65;;;6.70;99.90;;;5.95;100.00;97132.44;5026803;28;20210;-74
2023/03/26 00:49:02;;;;;;;17.20;2.10;;;6.60;99.90;;;5.97;100.00;97135.81;5037490;28;20073;-75
2023/03/26 00:51:30;;;;;;;11.40;2.38;;;6.70;99.90;;;6.01;100.00;97140.81;5042196;28;20140;-74
2023/03/26 00:53:57;;;;;;;12.90;2.17;;;6.70;99.90;;;5.92;100.00;97137.69;5025831;28;20495;-74
2023/03/26 00:56:25;;;;;;;14.55;2.45;;;6.60;99.90;;;5.88;100.00;97136.91;5043519;28;20049;-74
2023/03/26 00:58:52;;;;;;;14.70;2.50;;;6.60;99.90;;;5.91;100.00;97131.69;5007027;28;20049;-74
2023/03/26 01:01:29;;;;;;;13.23;2.10;;;6.60;99.90;;;5.89;100.00;97133.47;5025142;28;20512;-74
2023/03/26 01:04:26;;;;;;;14.40;3.20;;;6.60;99.90;;;5.86;100.00;97136.97;5026168;28;20415;-75
2023/03/26 01:06:55;;;;;;;15.00;2.67;;;6.50;99.90;;;5.87;100.00;97119.78;5024555;28;20131;-74
2023/03/26 01:09:31;;;;;;;15.43;2.67;;;6.50;99.90;;;5.87;100.00;97118.03;5042059;28;20152;-74
2023/03/26 01:12:02;;;;;;;15.27;2.45;;;6.50;99.90;;;5.94;100.00;97116.16;5027683;28;20050;-75
2023/03/26 01:14:29;;;;;;;16.02;2.30;;;6.60;99.90;;;5.92;100.00;97112.75;5027586;28;20128;-74
2023/03/26 01:17:04;;;;;;;15.50;2.67;;;6.60;99.90;;;5.99;100.00;97116.00;5007094;28;20498;-74
2023/03/26 01:19:43;;;;;;;16.88;2.95;;;6.60;99.90;;;6.02;100.00;97108.16;5038076;28;20059;-74
2023/03/26 01:22:21;;;;;;;14.85;2.72;;;6.70;99.90;;;6.05;100.00;97103.78;5022391;28;20057;-74
2023/03/26 01:24:55;;;;;;;15.68;3.60;;;6.70;99.90;;;5.99;100.00;97095.41;5021873;28;20136;-74
2023/03/26 01:27:39;;;;;;;14.88;2.63;;;6.60;99.90;;;6.02;100.00;97083.28;5035917;28;20176;-74
2023/03/26 01:30:36;;;;;;;13.68;2.55;;;6.70;99.90;;;6.04;100.00;97084.06;5022376;28;20462;-74
2023/03/26 01:33:57;;;;;;;11.98;3.00;;;6.70;99.90;;;5.99;100.00;97078.19;5023351;28;20057;-74
2023/03/26 01:36:59;;;;;;;17.05;2.70;;;6.70;99.90;;;6.00;100.00;97072.19;4980144;28;20133;-74
2023/03/26 01:40:04;;;;;;;12.07;2.70;;;6.70;99.90;;;5.99;100.00;97069.63;4979070;28;20420;-74
2023/03/26 01:42:44;;;;;;;11.65;2.33;;;6.70;99.90;;;5.98;100.00;97061.06;5023927;28;20145;-74
2023/03/26 01:45:27;;;;;;;14.05;1.98;;;6.70;99.90;;;5.97;100.00;97053.38;5033968;28;20497;-74
2023/03/26 01:47:56;;;;;;;13.88;1.73;;;6.70;99.90;;;5.97;100.00;97051.66;5024563;28;20045;-74
2023/03/26 01:50:23;;;;;;;12.55;2.15;;;6.60;99.90;;;6.01;100.00;97042.09;5035958;28;20073;-74
2023/03/26 01:52:50;;;;;;;16.88;2.22;;;6.70;99.90;;;5.93;100.00;97042.31;5035863;28;20128;-74
2023/03/26 01:55:17;;;;;;;19.48;2.10;;;6.70;99.90;;;5.87;100.00;97020.16;5023368;28;20049;-74
2023/03/26 01:57:56;;;;;;;12.95;1.77;;;6.70;99.90;;;5.78;100.00;97020.47;5024067;28;20137;-75
2023/03/26 02:00:47;;;;;;;16.92;1.77;;;6.60;99.90;;;5.80;100.00;97010.97;5006266;28;20231;-74
2023/03/26 02:03:30;;;;;;;17.85;2.20;;;6.50;99.90;;;5.80;100.00;97012.72;5024361;28;20538;-74
2023/03/26 02:06:10;;;;;;;15.90;2.85;;;6.50;99.90;;;5.85;100.00;97003.09;5039790;28;20107;-74
2023/03/26 02:08:51;;;;;;;12.85;2.20;;;6.50;99.90;;;5.82;100.00;96998.06;5005917;28;20068;-74
2023/03/26 02:11:18;;;;;;;12.95;2.10;;;6.40;99.90;;;5.72;100.00;96997.47;5024490;28;20056;-74
2023/03/26 02:13:46;;;;;;;11.73;2.30;;;6.40;99.90;;;5.72;100.00;97000.06;5033674;28;20052;-74
2023/03/26 02:16:16;;;;;;;18.40;2.58;;;6.40;99.90;;;5.79;100.00;97001.56;5020433;28;20049;-74
2023/03/26 02:18:50;;;;;;;9.73;1.38;;;6.40;99.90;;;5.74;100.00;96990.56;5006290;28;20053;-74
2023/03/26 02:21:20;;;;;;;15.60;2.38;;;6.40;99.90;;;5.84;100.00;96986.81;5024233;28;20056;-74
2023/03/26 02:23:56;;;;;;;11.23;2.15;;;6.50;99.90;;;5.72;100.00;96976.06;5036241;28;20083;-75
2023/03/26 02:26:31;;;;;;;13.07;2.47;;;6.50;99.90;;;5.73;100.00;96970.84;5036390;28;20060;-74
2023/03/26 02:29:00;;;;;;;12.43;2.33;;;6.40;99.90;;;5.80;100.00;96969.75;5039040;28;20046;-74
2023/03/26 02:31:27;;;;;;;17.05;2.15;;;6.50;99.90;;;5.76;100.00;96962.19;5021397;28;20158;-74
2023/03/26 02:33:57;;;;;;;14.93;2.38;;;6.50;99.90;;;5.85;100.00;96960.13;5023330;28;20452;-74
2023/03/26 02:36:26;;;;;;;20.00;2.35;;;6.50;99.90;;;5.84;100.00;96961.03;5033611;28;20073;-74
2023/03/26 02:38:56;;;;;;;18.42;2.53;;;6.50;99.90;;;5.84;100.00;96958.47;5036093;28;20056;-74
2023/03/26 02:41:23;;;;;;;19.63;2.72;;;6.50;99.90;;;5.81;100.00;96950.81;5020421;28;20044;-74
2023/03/26 02:43:51;;;;;;;15.18;2.42;;;6.50;99.90;;;5.88;100.00;96948.88;5034165;28;20052;-74
2023/03/26 02:46:18;;;;;;;17.33;3.08;;;6.50;99.90;;;5.89;100.00;96942.03;5023151;28;20053;-74
2023/03/26 02:48:45;;;;;;;15.93;2.63;;;6.50;99.90;;;5.84;100.00;96943.00;5035414;28;20049;-74
2023/03/26 02:51:12;;;;;;;13.80;2.45;;;6.50;99.90;;;5.89;100.00;96939.44;5038007;28;20539;-74
2023/03/26 02:53:40;;;;;;;11.50;2.15;;;6.50;99.90;;;5.89;100.00;96940.28;5036030;28;20499;-74
2023/03/26 02:56:08;;;;;;;15.63;2.50;;;6.50;99.90;;;5.89;100.00;96942.84;5034864;28;20056;-74
2023/03/26 02:58:35;;;;;;;16.23;2.95;;;6.40;99.90;;;5.95;100.00;96928.94;5037219;28;20519;-74
2023/03/26 03:01:05;;;;;;;14.60;2.80;;;6.40;99.90;;;6.06;100.00;96926.84;5021629;28;20499;-74
2023/03/26 03:03:33;;;;;;;17.20;2.70;;;6.50;99.90;;;5.99;100.00;96917.66;5022102;28;20403;-74
2023/03/26 03:06:00;;;;;;;9.90;2.33;;;6.50;99.90;;;6.08;100.00;96917.31;5036346;28;20053;-74
2023/03/26 03:08:28;;;;;;;11.60;1.80;;;6.60;99.90;;;6.21;100.00;96903.13;5018270;28;20133;-72
2023/03/26 03:11:10;;;;;;;12.60;1.98;;;6.60;99.90;;;6.14;100.00;96887.94;5019413;28;20049;-75
2023/03/26 03:13:40;;;;;;;20.88;2.05;;;6.60;99.90;;;6.16;100.00;96894.72;5023841;28;20526;-75
2023/03/26 03:16:10;;;;;;;20.05;2.50;;;6.70;99.90;;;6.15;100.00;96890.44;5022348;28;20045;-75
2023/03/26 03:18:37;;;;;;;15.50;2.10;;;6.60;99.90;;;6.16;100.00;96892.13;5036235;28;20170;-75
2023/03/26 03:21:05;;;;;;;16.17;2.55;;;6.70;99.90;;;6.16;100.00;96886.13;5020291;28;20042;-75
2023/03/26 03:23:32;;;;;;;17.10;2.88;;;6.70;99.90;;;6.25;100.00;96878.91;5021164;28;20069;-74
2023/03/26 03:26:01;;;;;;;17.83;2.33;;;6.70;99.90;;;6.27;100.00;96884.00;5026521;28;20121;-75
2023/03/26 03:28:29;;;;;;;14.93;2.63;;;6.60;99.90;;;6.11;100.00;96875.97;5027301;28;20125;-74
2023/03/26 03:30:57;;;;;;;15.15;2.65;;;6.60;99.90;;;6.12;100.00;96866.53;5022748;28;20050;-75
2023/03/26 03:33:25;;;;;;;10.13;2.22;;;6.60;99.90;;;6.26;100.00;96864.28;5035751;28;20145;-74
2023/03/26 03:35:52;;;;;;;11.35;2.30;;;6.70;99.90;;;6.36;100.00;96857.88;5037722;28;20504;-74
2023/03/26 03:38:19;;;;;;;12.73;2.42;;;6.80;99.90;;;6.35;100.00;96851.06;5024213;28;20053;-74
2023/03/26 03:40:47;;;;;;;20.40;2.60;;;6.80;99.90;;;6.27;100.00;96838.47;5025975;28;20124;-74
2023/03/26 03:43:14;;;;;;;14.77;1.75;;;6.90;99.90;;;6.34;100.00;96839.09;5023867;28;20051;-73
2023/03/26 03:45:41;;;;;;;14.82;2.03;;;6.90;99.90;;;6.31;100.00;96840.91;5038750;28;20157;-74
2023/03/26 03:48:08;;;;;;;11.50;1.55;;;6.90;99.90;;;6.42;100.00;96828.47;5038595;28;20677;-74
2023/03/26 03:50:36;;;;;;;14.18;1.92;;;7.00;99.90;;;6.33;100.00;96821.09;5041047;28;20187;-74
2023/03/26 03:53:04;;;;;;;18.15;2.20;;;7.00;99.90;;;6.32;100.00;96811.66;5025540;28;20124;-74
2023/03/26 03:55:31;;;;;;;12.27;2.15;;;7.00;99.90;;;6.40;100.00;96805.31;5027908;28;20049;-74
2023/03/26 03:57:58;;;;;;;14.93;1.95;;;7.00;99.90;;;6.39;100.00;96807.97;5025406;28;20083;-74
2023/03/26 04:00:26;;;;;;;9.77;1.40;;;7.00;99.90;;;6.37;100.00;96802.03;5037200;28;20049;-74
2023/03/26 04:02:53;;;;;;;14.68;2.45;;;7.00;99.90;;;6.45;100.00;96780.22;5037219;28;20141;-74
2023/03/26 04:05:20;;;;;;;13.55;2.00;;;7.00;99.90;;;6.58;100.00;96779.75;5038955;28;20205;-74
2023/03/26 04:07:47;;;;;;;13.60;1.98;;;7.10;99.90;;;6.44;100.00;96770.81;5037667;28;20050;-74
2023/03/26 04:10:15;;;;;;;13.45;2.35;;;7.10;99.90;;;6.55;100.00;96762.66;5022766;28;20063;-75
2023/03/26 04:12:42;;;;;;;14.35;2.20;;;7.10;99.90;;;6.59;100.00;96755.63;5022088;28;20545;-74
2023/03/26 04:15:09;;;;;;;14.77;2.65;;;7.10;99.90;;;6.60;100.00;96754.72;5037968;28;20527;-74
2023/03/26 04:17:41;;;;;;;10.82;1.80;;;7.00;99.90;;;6.50;100.00;96746.53;5036759;28;20168;-74
2023/03/26 04:20:14;;;;;;;13.93;1.67;;;7.00;99.90;;;6.64;100.00;96745.97;5023180;28;20041;-75
2023/03/26 04:22:42;;;;;;;;;;;7.00;99.90;;;6.39;100.00;96748.69;5022342;28;20045;-74
2023/03/26 04:25:11;;;;;;;9.73;2.25;;;6.90;99.90;;;6.33;100.00;96744.59;5053059;28;19926;-74
2023/03/26 04:27:40;;;;;;;11.77;1.92;;;7.00;99.90;;;6.22;100.00;96742.44;5023479;28;20088;-75
2023/03/26 04:30:14;;;;;;;9.80;1.88;;;6.90;99.90;;;6.30;100.00;96747.31;5035758;28;20053;-74
2023/03/26 04:32:43;;;;;;;19.42;2.28;;;6.90;99.90;;;6.43;100.00;96743.34;5038862;28;20049;-74
2023/03/26 04:35:17;;;;;;;19.05;2.35;;;6.90;99.90;;;6.36;100.00;96735.91;5019690;28;20045;-74
2023/03/26 04:37:45;;;;;;;12.18;1.70;;;7.00;99.90;;;6.48;100.00;96738.03;5024054;28;20121;-74
2023/03/26 04:40:20;;;;;;;18.58;2.28;;;7.10;99.90;;;6.47;100.00;96737.16;5023696;28;20052;-74
2023/03/26 04:42:47;;;;;;;13.88;2.03;;;7.10;99.90;;;6.40;100.00;96732.31;5025269;28;20057;-75
2023/03/26 04:45:21;;;;;;;13.27;1.90;;;7.10;99.90;;;6.45;100.00;96738.13;5024594;28;20045;-74
2023/03/26 04:47:49;;;;;;;19.10;2.08;;;7.10;99.90;;;6.37;100.00;96725.53;5021141;28;20045;-75
2023/03/26 04:50:17;;;;;;;12.75;1.88;;;7.10;99.90;;;6.35;100.00;96724.75;5022332;28;20528;-74
2023/03/26 04:52:44;;;;;;;16.33;2.20;;;7.10;99.90;;;6.35;100.00;96735.06;5039267;28;20049;-74
2023/03/26 04:55:28;;;;;;;14.25;2.47;;;7.10;99.90;;;6.41;100.00;96715.94;5023520;28;20122;-74
2023/03/26 04:57:56;;;;;;;;;;;7.00;99.90;;;6.34;100.00;96725.69;5026460;28;20041;-75
2023/03/26 05:00:24;;;;;;;11.25;1.75;;;7.00;99.90;;;6.29;100.00;96719.84;5025401;28;20385;-74
2023/03/26 05:02:52;;;;;;;9.50;1.92;;;7.00;99.90;;;6.28;100.00;96715.59;5022296;28;21881;-74
2023/03/26 05:05:20;;;;;;;13.93;2.05;;;6.90;99.90;;;6.21;100.00;96712.41;5036915;28;20076;-73
2023/03/26 05:07:47;;;;;;;14.18;2.42;;;6.90;99.90;;;6.22;100.00;96718.41;5025190;28;20045;-74
2023/03/26 05:10:15;;;;;;;13.10;2.00;;;6.90;99.90;;;6.24;100.00;96712.28;5021185;28;20049;-73
2023/03/26 05:12:42;;;;;;;15.75;1.90;;;6.80;99.90;;;6.25;100.00;96708.00;5022741;28;20058;-73
2023/03/26 05:15:12;;;;;;;21.17;2.13;;;6.90;99.90;;;6.19;100.00;96698.75;5036735;28;20049;-73
2023/03/26 05:17:40;;;;;;;19.33;2.40;;;6.90;99.90;;;6.23;100.00;96696.91;5023398;28;20064;-73
2023/03/26 05:20:26;;;;;;;13.85;2.30;;;6.90;99.90;;;6.22;100.00;96684.91;5021222;28;20657;-73
2023/03/26 05:22:54;;;;;;;13.50;2.10;;;6.90;99.90;;;6.25;100.00;96684.81;5016757;28;20057;-74
2023/03/26 05:25:22;;;;;;;14.73;2.38;;;6.90;99.90;;;6.29;100.00;96688.91;5036348;28;20053;-74
2023/03/26 05:27:49;;;;;;;11.25;2.03;;;6.90;99.90;;;6.30;100.00;96682.88;5038934;28;20132;-73
2023/03/26 05:30:19;;;;;;;11.88;2.00;;;6.90;99.90;;;6.28;100.00;96680.34;5033123;28;20049;-73
2023/03/26 05:32:47;;;;;;;14.63;1.83;;;6.90;99.90;;;6.24;100.00;96673.63;5025708;28;21381;-73
2023/03/26 05:35:15;;;;;;;12.13;1.77;;;6.90;99.90;;;6.28;100.00;96672.63;5022566;28;20053;-73
2023/03/26 05:37:45;;;;;;;8.88;1.98;;;6.90;99.90;;;6.19;100.00;96667.00;5036200;28;20727;-73
2023/03/26 05:40:15;;;;;;;10.80;1.88;;;7.00;99.90;;;6.26;100.00;96666.69;5022374;28;20045;-73
2023/03/26 05:42:43;;;;;;;12.65;3.45;;;6.90;99.90;;;6.24;100.00;96655.59;5022161;28;20475;-74
2023/03/26 05:45:12;;;;;;;15.07;2.78;;;6.90;99.90;;;6.22;100.00;96648.84;5022663;28;20056;-73
2023/03/26 05:47:40;;;;;;;11.75;1.80;;;6.90;99.90;;;6.28;100.00;96640.88;5022975;28;20527;-74
2023/03/26 05:50:09;;;;;;;13.25;2.38;;;6.90;99.90;;;6.21;100.00;96634.28;5021214;28;20145;-73
2023/03/26 05:52:36;;;;;;;15.05;2.25;;;6.90;99.90;;;6.25;100.00;96628.13;5037953;28;20475;-74
2023/03/26 05:55:04;;;;;;;19.73;2.35;;;6.90;99.90;;;6.27;100.00;96619.41;5021384;28;20451;-73
2023/03/26 05:57:31;;;;;;;11.60;1.88;;;6.90;99.90;;;6.41;100.00;96612.81;5038343;28;20076;-73
2023/03/26 05:59:58;;;;;;;11.18;1.65;;;7.00;99.90;;;6.42;100.00;96611.94;5021249;28;20495;-74
2023/03/26 06:02:25;;;;;;;13.23;1.83;;;7.00;99.90;;;6.38;100.00;96600.09;5020610;28;20050;-73
2023/03/26 06:04:52;;;;;;;11.45;1.92;;;7.00;99.90;;;6.45;100.00;96592.03;5037275;28;20041;-73
2023/03/26 06:07:20;;;;;;;11.98;1.95;;;7.00;99.90;;;6.42;100.00;96591.31;5024481;28;20134;-73
2023/03/26 06:09:47;;;;;;;16.58;2.58;;;7.00;99.90;;;6.24;100.00;96592.91;5020604;28;20064;-73
2023/03/26 06:12:15;;;;;;;15.93;2.38;;;6.90;99.90;;;6.25;100.00;96590.28;5019944;28;20115;-73
2023/03/26 06:14:42;;;;;;;11.07;2.30;;;6.90;99.90;;;6.25;100.00;96592.03;5022552;28;20049;-74
2023/03/26 06:17:09;;;;;;;13.88;2.65;;;6.80;99.90;;;6.19;100.00;96597.44;5039671;28;20168;-74
2023/03/26 06:19:37;;;;;;;14.23;2.38;;;6.70;99.90;;;6.10;100.00;96592.66;5024685;28;20057;-73
2023/03/26 06:22:04;;;;;;;13.00;2.97;;;6.70;99.90;;;6.12;100.00;96606.31;5038183;28;20046;-73
2023/03/26 06:24:33;;;;;;;17.77;2.47;;;6.70;99.90;;;6.03;100.00;96604.94;5037360;28;20084;-73
2023/03/26 06:27:01;;;;;;;11.07;2.72;;;6.70;99.90;;;6.07;100.00;96601.34;5038707;28;20041;-72
2023/03/26 06:29:32;;;;;;;17.73;3.38;;;6.50;99.90;;;6.02;100.00;96604.09;5036077;28;20137;-73
2023/03/26 06:31:59;;;;;;;15.75;3.10;;;6.50;99.90;;;6.00;100.00;96585.28;5023445;28;20049;-73
2023/03/26 06:34:42;;;;;;;9.48;1.95;;;6.50;99.90;;;5.96;100.00;96590.63;5026947;28;20541;-73
2023/03/26 06:37:09;;;;;;;10.68;1.60;;;6.50;99.90;;;5.80;100.00;96582.66;5021003;28;20053;-73
2023/03/26 06:39:36;;;;;;;11.70;1.65;;;6.50;99.90;;;5.75;100.00;96572.53;5037110;28;20100;-72
2023/03/26 06:42:03;;;;;;;9.77;1.88;;;6.40;99.90;;;5.82;100.00;96568.81;5020522;28;20046;-72
2023/03/26 06:44:31;;;;;;;17.42;2.97;;;6.30;99.90;;;5.68;100.00;96544.50;5035494;28;20061;-72
2023/03/26 06:46:58;;;;;;;11.38;1.70;;;6.30;99.90;;;5.75;100.00;96545.94;5022558;28;20095;-73
2023/03/26 06:49:25;;;;;;;7.60;1.30;;;6.20;99.90;;;5.57;100.00;96544.94;5023595;28;20534;-72
2023/03/26 06:51:52;;;;;;;6.82;1.20;;;6.20;99.90;;;5.52;100.00;96539.97;5035468;28;20042;-72
2023/03/26 06:54:19;;;;;;;13.38;2.20;;;6.10;99.90;;;5.54;100.00;96532.16;5022263;28;20045;-72
2023/03/26 06:56:47;;;;;;;15.73;1.77;;;6.10;99.90;;;5.47;100.00;96517.88;5020628;28;20555;-72
2023/03/26 06:59:14;;;;;;;10.70;1.85;;;6.10;99.90;;;5.45;100.00;96517.91;5025130;28;20154;-72
2023/03/26 07:01:41;;;;;;;10.07;1.83;;;6.10;99.90;;;5.57;100.00;96519.19;5024634;28;20051;-73
2023/03/26 07:04:08;;;;;;;9.07;1.98;;;6.10;99.90;;;5.47;100.00;96516.13;5025577;28;20041;-73
2023/03/26 07:06:35;;;;;;;9.45;2.03;;;6.00;99.90;;;5.45;100.00;96510.19;5025908;28;20049;-73
2023/03/26 07:09:02;;;;;;;9.25;1.85;;;6.00;99.90;;;5.41;100.00;96516.38;5025702;28;20045;-74
2023/03/26 07:11:30;;;;;;;10.02;1.70;;;6.00;99.90;;;5.46;100.00;96506.75;5034366;28;20130;-73
2023/03/26 07:13:58;;;;;;;9.75;1.70;;;6.10;99.90;;;5.46;100.00;96501.59;5040535;28;20152;-73
2023/03/26 07:16:25;;;;;;;10.23;1.48;;;6.00;99.90;;;5.45;100.00;96494.75;5039300;28;20057;-72
2023/03/26 07:18:54;;;;;;;9.68;1.15;;;6.10;99.90;;;5.48;100.00;96489.50;5040281;28;20124;-72
2023/03/26 07:21:21;;;;;;;8.68;1.45;;;6.10;99.90;;;5.44;100.00;96487.94;5038593;28;20053;-73
2023/03/26 07:23:49;;;;;;;16.20;2.47;;;6.10;99.90;;;5.32;100.00;96485.88;5025480;28;20055;-73
2023/03/26 07:26:33;;;;;;;13.50;1.83;;;6.00;99.90;;;5.33;100.00;96490.94;5023886;28;20462;-72
2023/03/26 07:29:14;;;;;;;12.77;2.13;;;5.90;99.90;;;5.44;100.00;96485.38;5039391;28;20152;-73
2023/03/26 07:32:15;;;;;;;9.88;1.83;;;5.90;99.90;;;5.42;100.00;96482.00;5027163;28;20057;-73
2023/03/26 07:35:09;;;;;;;7.80;1.48;;;5.90;99.90;;;5.47;100.00;96456.94;5025008;28;20054;-73
2023/03/26 07:38:02;;;;;;;8.82;1.48;;;5.90;99.90;;;5.51;100.00;96452.50;5023299;28;20056;-73
2023/03/26 07:40:49;;;;;;;13.68;1.73;;;6.00;99.90;;;5.47;100.00;96436.34;5038303;28;20428;-72
2023/03/26 07:43:45;;;;;;;8.43;1.30;;;6.00;99.90;;;5.55;100.00;96442.03;5038581;28;20041;-73
2023/03/26 07:46:14;;;;;;;11.25;1.50;;;6.00;99.90;;;5.60;100.00;96426.38;5027725;28;20470;-73
2023/03/26 07:48:46;;;;;;;9.60;2.15;;;6.10;99.90;;;5.69;100.00;96426.00;5027254;28;20551;-73
2023/03/26 07:51:14;;;;;;;10.20;1.30;;;6.20;99.90;;;5.86;100.00;96430.44;5020740;28;20045;-73
2023/03/26 07:53:41;;;;;;;5.47;1.27;;;6.30;99.90;;;6.04;100.00;96421.13;5024588;28;20793;-73
2023/03/26 07:56:20;;;;;;;6.93;1.30;;;6.40;99.90;;;6.19;100.00;96425.63;5042220;28;20045;-73
2023/03/26 07:58:55;;;;;;;10.43;1.38;;;6.50;99.90;;;6.54;100.00;96425.78;5042157;28;20507;-73
2023/03/26 08:01:45;;;;;;;7.50;1.15;;;6.70;99.90;;;6.63;100.00;96432.28;5027023;28;20085;-73
2023/03/26 08:04:52;;;;;;;7.85;1.15;;;6.90;99.90;;;6.67;100.00;96423.50;5040895;28;20069;-73
2023/03/26 08:07:47;;;;;;;9.40;1.25;;;6.90;99.90;;;6.58;100.00;96422.19;5023746;28;20057;-73
2023/03/26 08:10:40;;;;;;;4.68;1.30;;;7.00;99.90;;;6.49;100.00;96415.69;5026262;28;20144;-73
2023/03/26 08:13:17;;;;;;;6.38;1.42;;;6.90;99.90;;;6.60;100.00;96422.94;5026096;28;20064;-73
2023/03/26 08:16:14;;;;;;;8.00;1.60;;;7.00;99.90;;;6.64;100.00;96426.25;5023005;28;20054;-73
2023/03/26 08:19:30;;;;;;;8.82;1.63;;;6.90;99.90;;;6.53;100.00;96407.84;5037979;28;20424;-72
2023/03/26 08:22:25;;;;;;;7.47;1.52;;;6.90;99.90;;;6.54;100.00;96409.50;5023893;28;20061;-73
2023/03/26 08:25:21;;;;;;;5.90;1.08;;;6.90;99.90;;;6.67;100.00;96424.34;5033213;28;20076;-72
2023/03/26 08:28:32;;;;;;;7.45;1.30;;;6.90;99.90;;;6.85;100.00;96421.84;5046967;28;20045;-72
2023/03/26 08:31:01;;;;;;;6.03;1.80;;;6.90;99.90;;;7.15;100.00;96414.41;5042761;28;20068;-72
2023/03/26 08:33:29;;;;;;;7.22;1.42;;;7.10;99.90;;;7.29;100.00;96426.63;5046901;28;20045;-72
2023/03/26 08:35:57;;;;;;;9.07;1.80;;;7.40;99.90;;;7.46;100.00;96431.00;5042381;28;20045;-72
2023/03/26 08:38:24;;;;;;;9.02;1.60;;;7.80;99.90;;;8.08;100.00;96439.97;5045326;28;20403;-73
2023/03/26 08:41:10;;;;;;;6.65;1.40;;;8.20;99.90;;;8.92;100.00;96445.09;5043012;28;20438;-72
2023/03/26 08:44:19;;;;;;;5.82;1.30;;;9.00;99.90;;;8.48;100.00;96421.56;5041873;28;20049;-72
2023/03/26 08:47:24;;;;;;;5.90;1.40;;;9.10;99.90;;;8.32;100.00;96419.75;5044534;28;20057;-72
2023/03/26 08:50:49;;;;;;;6.35;1.10;;;8.80;99.90;;;8.22;100.00;96395.31;5040619;28;20128;-73
2023/03/26 08:53:41;;;;;;;7.28;1.48;;;8.60;99.90;;;8.33;100.00;96399.94;5044117;28;20056;-73
2023/03/26 08:56:52;;;;;;;4.95;1.60;;;8.50;99.90;;;8.44;100.00;96384.72;5043293;28;20056;-73
2023/03/26 08:59:54;;;;;;;6.10;1.33;;;8.40;99.90;;;8.25;100.00;96371.03;5005200;28;20054;-73
2023/03/26 09:02:54;;;;;;;6.90;1.33;;;8.50;99.90;;;8.18;100.00;96386.88;5047017;28;20081;-74
2023/03/26 09:05:54;;;;;;;6.80;1.90;;;8.50;99.90;;;8.28;100.00;96383.78;5047176;28;20111;-73
2023/03/26 09:08:59;;;;;;;7.78;1.50;;;8.60;99.90;;;8.28;100.00;96383.78;5046556;28;20659;-73
2023/03/26 09:11:32;;;;;;;10.73;1.95;;;8.60;99.90;;;8.34;100.00;96396.41;5057825;28;20060;-73
2023/03/26 09:14:49;;;;;;;8.38;2.03;;;8.60;99.90;;;8.48;100.00;96368.09;5043467;28;20061;-73
2023/03/26 09:17:56;;;;;;;8.48;2.00;;;8.60;99.90;;;8.35;100.00;96360.13;5043597;28;20072;-73
2023/03/26 09:21:11;;;;;;;8.35;1.48;;;8.60;99.90;;;9.00;100.00;96360.06;5041448;28;20132;-73
2023/03/26 09:24:31;;;;;;;8.30;1.20;;;9.00;99.90;;;9.85;100.00;96355.22;5043912;28;20104;-73
2023/03/26 09:27:12;;;;;;;9.48;3.28;;;9.80;99.90;;;10.44;100.00;96317.09;5046214;28;20525;-73
2023/03/26 09:29:55;;;;;;;9.43;1.60;;;10.80;99.90;;;10.34;100.00;96286.66;5043677;28;20345;-73
2023/03/26 09:33:02;;;;;;;9.55;2.63;;;10.80;99.90;;;10.43;100.00;96301.63;5057727;28;21264;-73
2023/03/26 09:35:49;;;;;;;3.85;1.08;;;10.30;99.90;;;10.04;100.00;96262.47;5041811;28;20418;-73
2023/03/26 09:38:40;;;;;;;7.68;1.50;;;10.20;99.90;;;9.96;100.00;96274.25;5034856;28;20219;-73
2023/03/26 09:41:46;;;;;;;5.03;1.00;;;10.10;99.90;;;10.51;100.00;96268.25;5041360;28;20052;-73
2023/03/26 09:44:57;;;;;;;5.40;1.02;;;10.40;99.90;;;10.58;100.00;96253.13;5038382;28;20049;-73
2023/03/26 09:47:42;;;;;;;5.57;0.80;;;10.30;99.90;;;9.57;100.00;96242.88;5027646;28;20659;-73
2023/03/26 09:50:20;;;;;;;7.45;1.20;;;10.30;99.90;;;9.34;100.00;96246.00;5035347;28;20044;-73
2023/03/26 09:53:01;;;;;;;6.32;1.00;;;9.90;99.90;;;8.91;100.00;96274.38;5043426;28;20064;-73
2023/03/26 09:55:58;;;;;;;7.18;0.77;;;9.70;99.90;;;9.26;100.00;96274.09;5041148;28;20056;-73
2023/03/26 09:58:42;;;;;;;5.72;0.93;;;9.40;99.90;;;8.79;100.00;96235.31;5040164;28;20113;-73
2023/03/26 10:01:17;;;;;;;6.78;1.00;;;9.40;99.90;;;8.95;100.00;96279.28;5042766;28;20055;-73
2023/03/26 10:03:56;;;;;;;5.53;1.17;;;9.20;99.90;;;9.80;100.00;96277.75;5043183;28;20085;-74
2023/03/26 10:07:17;;;;;;;2.95;0.60;;;9.80;99.90;;;10.50;100.00;96256.22;5041951;28;20159;-74
2023/03/26 10:10:07;;;;;;;1.67;0.63;;;10.60;99.90;;;10.09;100.00;96251.81;5038845;28;20076;-73
2023/03/26 10:12:58;;;;;;;2.65;0.70;;;10.60;99.90;;;10.25;100.00;96273.28;5041862;28;20663;-74
2023/03/26 10:15:56;;;;;;;2.28;0.60;;;10.60;99.90;;;10.35;100.00;96280.53;5041282;28;20140;-74
2023/03/26 10:19:03;;;;;;;4.45;0.98;;;10.60;99.90;;;10.22;100.00;96260.50;5042277;28;20406;-74
2023/03/26 10:22:08;;;;;;;2.97;0.65;;;11.40;99.90;;;10.70;100.00;96257.53;5045025;28;20060;-74
2023/03/26 10:25:04;;;;;;;4.22;0.60;;;12.00;99.90;;;11.15;100.00;96249.44;5057368;28;20084;-73
2023/03/26 10:28:08;;;;;;;3.30;0.70;;;11.70;99.90;;;10.58;100.00;96266.94;5041162;28;20160;-74
2023/03/26 10:31:11;;;;;;;3.78;0.88;;;12.40;99.90;;;11.09;100.00;96251.53;5042847;28;20706;-73
2023/03/26 10:33:55;;;;;;;1.63;0.47;;;12.30;99.90;;;10.88;100.00;96277.13;5045921;28;20128;-72
2023/03/26 10:36:42;;;;;;;3.10;0.50;;;11.80;99.90;;;10.88;100.00;96263.31;5057045;28;20122;-72
2023/03/26 10:39:21;;;;;;;3.95;0.60;;;11.70;99.90;;;11.06;100.00;96256.06;5046309;28;20503;-73
2023/03/26 10:42:51;;;;;;;3.22;0.60;;;11.40;99.90;;;10.04;100.00;96221.00;5058307;28;20045;-72
2023/03/26 10:45:47;;;;;;;6.18;0.70;;;10.80;99.90;;;9.79;100.00;96249.38;5047047;28;20072;-72
2023/03/26 10:48:59;;;;;;;2.92;0.70;;;10.30;99.90;;;9.61;100.00;96287.56;5045669;28;20045;-72
2023/03/26 10:51:54;;;;;;;3.30;0.52;;;10.00;99.90;;;8.96;100.00;96268.03;5044094;28;20120;-75
2023/03/26 10:54:43;;;;;;;5.22;0.68;;;9.70;99.90;;;8.75;100.00;96321.78;5063248;28;20057;-74
2023/03/26 10:57:44;;;;;;;7.45;0.80;;;9.50;99.90;;;8.59;100.00;96284.75;5045909;28;20156;-72
2023/03/26 11:00:27;;;;;;;4.75;0.73;;;9.40;99.90;;;8.49;100.00;96299.97;5042628;28;20527;-72
2023/03/26 11:03:12;;;;;;;4.72;0.85;;;9.30;99.90;;;8.36;100.00;96317.84;5046361;28;20419;-72